createdAt,value
2019-04-05T00:00:27.776Z,83.80
2019-04-05T00:01:27.696Z,84.08
2019-04-05T00:02:27.611Z,84.17
2019-04-05T00:03:27.530Z,84.84
2019-04-05T00:04:27.449Z,85.22
2019-04-05T00:05:27.369Z,85.60
2019-04-05T00:06:27.285Z,85.41
2019-04-05T00:07:27.201Z,85.60
2019-04-05T00:08:27.189Z,85.70
2019-04-05T00:09:27.038Z,85.99
2019-04-05T00:10:26.954Z,85.99
2019-04-05T00:11:26.874Z,86.36
2019-04-05T00:12:26.794Z,86.36
2019-04-05T00:13:26.708Z,86.94
2019-04-05T00:14:26.632Z,86.94
2019-04-05T00:15:26.544Z,87.41
2019-04-05T00:16:26.461Z,88.18
2019-04-05T00:17:26.379Z,88.32
2019-04-05T00:18:26.295Z,89.65
2019-04-05T00:19:26.212Z,90.03
2019-04-05T00:20:26.132Z,90.22
2019-04-05T00:21:26.050Z,90.80
2019-04-05T00:22:25.965Z,90.36
2019-04-05T00:23:25.882Z,89.94
2019-04-05T00:24:25.869Z,89.41
2019-04-05T00:25:25.720Z,89.41
2019-04-05T00:26:25.638Z,89.84
2019-04-05T00:27:25.551Z,89.37
2019-04-05T00:28:25.472Z,89.61
2019-04-05T00:29:25.385Z,89.08
2019-04-05T00:30:25.305Z,89.13
2019-04-05T00:31:25.295Z,89.41
2019-04-05T00:32:25.149Z,89.41
2019-04-05T00:33:25.053Z,88.56
2019-04-05T00:34:24.972Z,88.93
2019-04-05T00:35:24.894Z,89.37
2019-04-05T00:36:24.814Z,90.22
2019-04-05T00:37:24.724Z,90.89
2019-04-05T00:38:24.654Z,91.46
2019-04-05T00:39:24.562Z,91.37
2019-04-05T00:40:24.496Z,90.80
2019-04-05T00:41:24.395Z,90.61
2019-04-05T00:42:24.310Z,89.94
2019-04-05T00:43:24.229Z,90.51
2019-04-05T00:44:24.148Z,90.42
2019-04-05T00:45:28.506Z,89.94
2019-04-05T00:46:23.979Z,89.65
2019-04-05T00:47:23.898Z,89.79
2019-04-05T00:48:23.818Z,89.32
2019-04-05T00:49:23.729Z,89.32
2019-04-05T00:50:23.649Z,89.37
2019-04-05T00:51:23.569Z,89.37
2019-04-05T00:52:23.485Z,89.27
2019-04-05T00:53:23.399Z,89.41
2019-04-05T00:54:23.321Z,88.89
2019-04-05T00:55:23.234Z,89.08
2019-04-05T00:56:23.158Z,89.61
2019-04-05T00:57:23.065Z,88.89
2019-04-05T00:58:22.988Z,88.93
2019-04-05T00:59:22.907Z,89.03
2019-04-05T01:00:22.820Z,88.89
2019-04-05T01:01:22.742Z,88.89
2019-04-05T01:02:22.659Z,89.56
2019-04-05T01:03:22.573Z,89.75
2019-04-05T01:04:22.490Z,89.18
2019-04-05T01:05:22.409Z,89.65
2019-04-05T01:06:22.327Z,89.37
2019-04-05T01:07:22.241Z,89.47
2019-04-05T01:08:22.160Z,89.65
2019-04-05T01:09:22.075Z,90.32
2019-04-05T01:10:21.993Z,90.42
2019-04-05T01:11:21.917Z,90.61
2019-04-05T01:12:21.828Z,91.37
2019-04-05T01:13:21.743Z,92.22
2019-04-05T01:14:21.661Z,91.75
2019-04-05T01:15:21.579Z,92.03
2019-04-05T01:16:21.499Z,92.32
2019-04-05T01:17:25.028Z,91.75
2019-04-05T01:18:21.334Z,92.51
2019-04-05T01:19:21.248Z,92.32
2019-04-05T01:20:21.170Z,91.56
2019-04-05T01:21:21.083Z,91.37
2019-04-05T01:22:21.019Z,91.46
2019-04-05T01:23:20.915Z,91.56
2019-04-05T01:24:20.833Z,91.75
2019-04-05T01:25:20.750Z,91.56
2019-04-05T01:26:20.664Z,91.56
2019-04-05T01:27:20.581Z,91.84
2019-04-05T01:28:20.506Z,91.84
2019-04-05T01:29:20.417Z,91.94
2019-04-05T01:30:20.334Z,92.60
2019-04-05T01:31:20.252Z,92.32
2019-04-05T01:32:20.168Z,92.51
2019-04-05T01:33:20.084Z,93.08
2019-04-05T01:34:20.006Z,93.46
2019-04-05T01:35:19.923Z,93.94
2019-04-05T01:36:19.837Z,93.65
2019-04-05T01:37:19.752Z,94.60
2019-04-05T01:38:19.671Z,93.74
2019-04-05T01:39:19.588Z,94.70
2019-04-05T01:40:19.514Z,94.60
2019-04-05T01:41:19.425Z,94.89
2019-04-05T01:42:19.339Z,96.22
2019-04-05T01:43:19.255Z,96.55
2019-04-05T01:44:19.171Z,97.41
2019-04-05T01:45:19.089Z,99.31
2019-04-05T01:46:19.005Z,99.22
2019-04-05T01:47:18.922Z,99.22
2019-04-05T01:48:18.838Z,99.50
2019-04-05T01:49:18.753Z,99.98
2019-04-05T01:50:18.673Z,99.88
2019-04-05T01:51:18.590Z,99.79
2019-04-05T01:52:18.504Z,99.99
2019-04-05T01:53:18.423Z,99.99
2019-04-05T01:54:18.339Z,99.99
2019-04-05T01:55:18.258Z,99.99
2019-04-05T01:56:18.173Z,99.99
2019-04-05T01:57:18.099Z,99.65
2019-04-05T01:58:18.003Z,99.65
2019-04-05T01:59:17.921Z,99.99
2019-04-05T02:00:17.842Z,99.93
2019-04-05T02:01:17.756Z,99.99
2019-04-05T02:02:17.683Z,99.99
2019-04-05T02:03:17.590Z,99.99
2019-04-05T02:04:17.507Z,99.99
2019-04-05T02:05:17.426Z,99.99
2019-04-05T02:06:17.340Z,99.99
2019-04-05T02:07:17.257Z,99.99
2019-04-05T02:08:17.175Z,99.99
2019-04-05T02:09:17.092Z,99.99
2019-04-05T02:10:17.009Z,99.99
2019-04-05T02:11:16.923Z,99.99
2019-04-05T02:12:16.840Z,99.99
2019-04-05T02:13:16.767Z,99.99
2019-04-05T02:14:16.675Z,99.99
2019-04-05T02:15:16.599Z,99.99
2019-04-05T02:16:16.510Z,99.99
2019-04-05T02:17:16.423Z,99.99
2019-04-05T02:18:16.341Z,99.99
2019-04-05T02:19:16.302Z,99.99
2019-04-05T02:20:16.174Z,99.99
2019-04-05T02:21:16.089Z,99.99
2019-04-05T02:22:16.008Z,99.99
2019-04-05T02:23:15.925Z,99.99
2019-04-05T02:24:15.850Z,99.99
2019-04-05T02:25:15.756Z,99.99
2019-04-05T02:26:15.674Z,99.99
2019-04-05T02:27:15.590Z,99.99
2019-04-05T02:28:15.507Z,99.99
2019-04-05T02:29:15.428Z,99.99
2019-04-05T02:30:15.338Z,99.99
2019-04-05T02:31:15.267Z,99.99
2019-04-05T02:32:15.172Z,99.99
2019-04-05T02:33:15.111Z,99.99
2019-04-05T02:34:15.007Z,99.99
2019-04-05T02:35:14.932Z,99.99
2019-04-05T02:36:14.858Z,99.99
2019-04-05T02:37:14.758Z,99.99
2019-04-05T02:38:14.675Z,99.99
2019-04-05T02:39:14.597Z,99.99
2019-04-05T02:40:14.516Z,99.99
2019-04-05T02:41:14.426Z,99.99
2019-04-05T02:42:14.340Z,99.99
2019-04-05T02:43:14.257Z,99.99
2019-04-05T02:44:14.173Z,99.99
2019-04-05T02:45:14.098Z,99.99
2019-04-05T02:46:23.572Z,99.99
2019-04-05T02:47:13.924Z,99.99
2019-04-05T02:48:13.840Z,99.99
2019-04-05T02:49:13.756Z,99.99
2019-04-05T02:50:13.673Z,99.99
2019-04-05T02:51:13.595Z,99.99
2019-04-05T02:52:13.505Z,99.99
2019-04-05T02:53:13.426Z,99.99
2019-04-05T02:54:13.341Z,99.99
2019-04-05T02:55:13.262Z,99.99
2019-04-05T02:56:13.169Z,99.99
2019-04-05T02:57:13.090Z,99.99
2019-04-05T02:58:13.018Z,99.99
2019-04-05T02:59:12.922Z,99.99
2019-04-05T03:00:12.842Z,99.99
2019-04-05T03:01:12.753Z,99.99
2019-04-05T03:02:12.687Z,99.99
2019-04-05T03:03:12.587Z,99.99
2019-04-05T03:04:12.503Z,99.99
2019-04-05T03:05:12.418Z,99.99
2019-04-05T03:06:12.336Z,99.99
2019-04-05T03:07:12.260Z,99.99
2019-04-05T03:08:12.170Z,99.99
2019-04-05T03:09:12.091Z,99.99
2019-04-05T03:10:12.004Z,99.99
2019-04-05T03:11:11.920Z,99.99
2019-04-05T03:12:11.838Z,99.99
2019-04-05T03:13:11.752Z,99.99
2019-04-05T03:14:11.669Z,99.99
2019-04-05T03:15:11.586Z,99.99
2019-04-05T03:16:11.502Z,99.99
2019-04-05T03:17:11.418Z,99.99
2019-04-05T03:18:11.337Z,99.99
2019-04-05T03:19:11.257Z,99.99
2019-04-05T03:20:11.172Z,99.99
2019-04-05T03:21:11.095Z,99.99
2019-04-05T03:22:11.001Z,99.99
2019-04-05T03:23:10.923Z,99.99
2019-04-05T03:24:10.836Z,99.99
2019-04-05T03:25:10.750Z,99.99
2019-04-05T03:26:10.663Z,99.99
2019-04-05T03:27:10.584Z,99.99
2019-04-05T03:28:10.509Z,99.99
2019-04-05T03:29:10.421Z,99.99
2019-04-05T03:30:10.339Z,99.99
2019-04-05T03:31:10.291Z,99.99
2019-04-05T03:32:10.184Z,99.99
2019-04-05T03:33:10.118Z,99.99
2019-04-05T03:34:10.027Z,99.99
2019-04-05T03:35:09.919Z,99.99
2019-04-05T03:36:09.834Z,99.99
2019-04-05T03:37:09.763Z,99.99
2019-04-05T03:38:09.669Z,99.99
2019-04-05T03:39:09.695Z,99.99
2019-04-05T03:40:09.500Z,99.99
2019-04-05T03:41:09.417Z,99.99
2019-04-05T03:42:09.337Z,99.99
2019-04-05T03:43:09.252Z,99.99
2019-04-05T03:44:09.239Z,99.99
2019-04-05T03:45:09.083Z,99.99
2019-04-05T03:46:09.011Z,99.99
2019-04-05T03:47:08.929Z,99.99
2019-04-05T03:48:08.834Z,99.99
2019-04-05T03:49:08.747Z,99.99
2019-04-05T03:50:08.669Z,99.99
2019-04-05T03:51:08.584Z,99.99
2019-04-05T03:52:08.508Z,99.99
2019-04-05T03:53:08.419Z,99.99
2019-04-05T03:54:08.335Z,99.99
2019-04-05T03:55:08.251Z,99.99
2019-04-05T03:56:08.166Z,99.99
2019-04-05T03:57:08.084Z,99.99
2019-04-05T03:58:08.012Z,99.99
2019-04-05T03:59:07.920Z,99.99
2019-04-05T04:00:07.840Z,99.99
2019-04-05T04:01:07.749Z,99.99
2019-04-05T04:02:07.673Z,99.99
2019-04-05T04:03:07.583Z,99.99
2019-04-05T04:04:07.530Z,99.99
2019-04-05T04:05:07.414Z,99.99
2019-04-05T04:06:07.331Z,99.99
2019-04-05T04:07:07.254Z,99.99
2019-04-05T04:08:07.199Z,99.99
2019-04-05T04:09:07.090Z,99.99
2019-04-05T04:10:07.002Z,99.99
2019-04-05T04:11:06.915Z,99.99
2019-04-05T04:12:06.838Z,99.99
2019-04-05T04:13:06.756Z,99.99
2019-04-05T04:14:06.679Z,99.99
2019-04-05T04:15:06.582Z,99.99
2019-04-05T04:16:06.505Z,99.99
2019-04-05T04:17:12.626Z,99.99
2019-04-05T04:18:06.335Z,99.99
2019-04-05T04:19:06.249Z,99.99
2019-04-05T04:20:06.168Z,99.99
2019-04-05T04:21:06.083Z,99.99
2019-04-05T04:22:06.007Z,99.99
2019-04-05T04:23:05.921Z,99.99
2019-04-05T04:24:05.834Z,99.99
2019-04-05T04:25:05.750Z,99.99
2019-04-05T04:26:05.676Z,99.99
2019-04-05T04:27:05.583Z,99.99
2019-04-05T04:28:05.502Z,99.99
2019-04-05T04:29:05.444Z,99.99
2019-04-05T04:30:05.335Z,99.99
2019-04-05T04:31:05.265Z,99.99
2019-04-05T04:32:05.176Z,99.99
2019-04-05T04:33:05.102Z,99.99
2019-04-05T04:34:05.004Z,99.99
2019-04-05T04:35:04.921Z,99.99
2019-04-05T04:36:04.835Z,99.99
2019-04-05T04:37:04.752Z,99.99
2019-04-05T04:38:04.680Z,99.99
2019-04-05T04:39:04.587Z,99.99
2019-04-05T04:40:04.506Z,99.99
2019-04-05T04:41:04.421Z,99.99
2019-04-05T04:42:04.334Z,99.99
2019-04-05T04:43:04.255Z,99.99
2019-04-05T04:44:04.170Z,99.99
2019-04-05T04:45:11.954Z,99.99
2019-04-05T04:46:04.001Z,99.99
2019-04-05T04:48:35.917Z,99.99
2019-04-05T04:49:35.822Z,99.99
2019-04-05T04:51:41.119Z,99.99
2019-04-05T04:52:41.045Z,99.99
2019-04-05T04:53:40.950Z,99.99
2019-04-05T04:54:40.867Z,99.99
2019-04-05T04:55:40.780Z,99.99
2019-04-05T04:56:40.698Z,99.99
2019-04-05T04:57:40.617Z,99.99
2019-04-05T04:58:40.529Z,99.99
2019-04-05T04:59:40.449Z,99.99
2019-04-05T05:00:40.372Z,99.99
2019-04-05T05:01:40.279Z,99.99
2019-04-05T05:02:40.204Z,99.99
2019-04-05T05:03:40.123Z,99.99
2019-04-05T05:04:40.032Z,99.99
2019-04-05T05:05:39.957Z,99.99
2019-04-05T05:06:39.878Z,99.99
2019-04-05T05:07:39.795Z,99.99
2019-04-05T05:08:39.710Z,99.99
2019-04-05T05:09:39.614Z,99.99
2019-04-05T05:10:39.531Z,99.99
2019-04-05T05:11:39.469Z,99.99
2019-04-05T05:12:39.364Z,99.99
2019-04-05T05:13:39.289Z,99.99
2019-04-05T05:14:39.205Z,99.99
2019-04-05T05:15:39.120Z,99.99
2019-04-05T05:16:39.030Z,99.99
2019-04-05T05:17:39.226Z,99.99
2019-04-05T05:18:38.874Z,99.99
2019-04-05T05:19:38.778Z,99.99
2019-04-05T05:20:38.708Z,99.99
2019-04-05T05:21:38.617Z,99.99
2019-04-05T05:22:38.529Z,99.99
2019-04-05T05:23:38.471Z,99.99
2019-04-05T05:24:38.370Z,99.99
2019-04-05T05:25:38.282Z,99.99
2019-04-05T05:26:38.202Z,99.99
2019-04-05T05:27:38.123Z,99.99
2019-04-05T05:28:38.041Z,99.99
2019-04-05T05:29:37.956Z,99.99
2019-04-05T05:30:37.867Z,99.99
2019-04-05T05:31:37.792Z,99.99
2019-04-05T05:32:37.713Z,99.99
2019-04-05T05:33:37.619Z,99.99
2019-04-05T05:34:37.537Z,99.99
2019-04-05T05:35:37.455Z,99.99
2019-04-05T05:36:37.375Z,99.99
2019-04-05T05:37:37.299Z,99.99
2019-04-05T05:38:37.205Z,99.99
2019-04-05T05:39:37.123Z,99.99
2019-04-05T05:40:37.038Z,99.99
2019-04-05T05:41:36.956Z,99.99
2019-04-05T05:42:36.877Z,99.99
2019-04-05T05:43:36.820Z,99.99
2019-04-05T05:44:36.708Z,99.99
2019-04-05T05:45:36.626Z,99.99
2019-04-05T05:46:36.548Z,99.99
2019-04-05T05:47:36.458Z,99.99
2019-04-05T05:48:36.379Z,99.99
2019-04-05T05:49:36.298Z,99.99
2019-04-05T05:50:36.216Z,99.99
2019-04-05T05:51:36.129Z,99.99
2019-04-05T05:52:36.049Z,99.99
2019-04-05T05:53:35.975Z,99.99
2019-04-05T05:54:35.884Z,99.99
2019-04-05T05:55:35.805Z,99.99
2019-04-05T05:56:35.722Z,99.99
2019-04-05T05:57:35.633Z,99.99
2019-04-05T05:58:35.573Z,99.99
2019-04-05T05:59:35.509Z,99.99
2019-04-05T06:00:35.384Z,99.99
2019-04-05T06:01:35.300Z,99.99
2019-04-05T06:02:36.507Z,99.99
2019-04-05T06:03:35.150Z,99.99
2019-04-05T06:04:35.063Z,99.99
2019-04-05T06:05:34.976Z,99.99
2019-04-05T06:06:34.907Z,99.99
2019-04-05T06:07:34.825Z,99.99
2019-04-05T06:08:34.769Z,99.99
2019-04-05T06:09:34.645Z,99.99
2019-04-05T06:10:34.568Z,99.99
2019-04-05T06:11:34.478Z,99.99
2019-04-05T06:12:34.415Z,99.99
2019-04-05T06:13:34.341Z,99.99
2019-04-05T06:14:34.230Z,99.99
2019-04-05T06:15:37.200Z,99.99
2019-04-05T06:16:45.864Z,99.99
2019-04-05T06:17:34.021Z,99.99
2019-04-05T06:18:33.904Z,99.99
2019-04-05T06:19:33.825Z,99.99
2019-04-05T06:20:33.741Z,99.99
2019-04-05T06:21:33.681Z,99.99
2019-04-05T06:22:33.574Z,99.99
2019-04-05T06:23:34.362Z,99.99
2019-04-05T06:24:33.431Z,99.99
2019-04-05T06:25:33.334Z,99.99
2019-04-05T06:26:33.243Z,99.99
2019-04-05T06:27:35.422Z,99.99
2019-04-05T06:28:33.113Z,99.99
2019-04-05T06:29:33.003Z,99.99
2019-04-05T06:30:32.939Z,99.99
2019-04-05T06:31:32.829Z,99.99
2019-04-05T06:32:32.763Z,99.99
2019-04-05T06:33:35.652Z,99.99
2019-04-05T06:34:32.600Z,99.99
2019-04-05T06:35:32.518Z,99.99
2019-04-05T06:36:32.503Z,99.99
2019-04-05T06:37:32.344Z,99.99
2019-04-05T06:38:32.252Z,99.99
2019-04-05T06:39:32.194Z,99.99
2019-04-05T06:40:40.852Z,99.99
2019-04-05T06:41:32.068Z,99.99
2019-04-05T06:42:31.920Z,99.99
2019-04-05T06:43:31.862Z,99.99
2019-04-05T06:44:31.783Z,99.99
2019-04-05T06:45:31.700Z,99.99
2019-04-05T06:46:31.607Z,99.99
2019-04-05T06:47:31.505Z,99.99
2019-04-05T06:48:31.447Z,99.99
2019-04-05T06:49:31.356Z,99.99
2019-04-05T06:50:31.259Z,99.99
2019-04-05T06:51:31.170Z,99.99
2019-04-05T06:52:31.102Z,99.99
2019-04-05T06:53:31.005Z,99.99
2019-04-05T06:54:30.921Z,99.99
2019-04-05T06:55:30.861Z,99.99
2019-04-05T06:56:30.766Z,99.99
2019-04-05T06:57:30.676Z,99.99
2019-04-05T06:58:30.613Z,99.99
2019-04-05T06:59:30.524Z,99.99
2019-04-05T07:00:30.473Z,99.99
2019-04-05T07:01:30.353Z,99.99
2019-04-05T07:02:30.264Z,99.99
2019-04-05T07:03:30.195Z,99.99
2019-04-05T07:04:31.226Z,99.99
2019-04-05T07:05:30.132Z,99.99
2019-04-05T07:06:29.960Z,99.99
2019-04-05T07:07:29.882Z,99.99
2019-04-05T07:08:29.776Z,99.99
2019-04-05T07:09:29.693Z,99.99
2019-04-05T07:10:29.633Z,99.99
2019-04-05T07:11:29.551Z,99.99
2019-04-05T07:12:29.502Z,99.99
2019-04-05T07:13:29.373Z,99.99
2019-04-05T07:14:29.306Z,99.99
2019-04-05T07:15:29.199Z,99.99
2019-04-05T07:16:29.122Z,99.99
2019-04-05T07:17:29.043Z,99.99
2019-04-05T07:18:35.649Z,99.99
2019-04-05T07:19:28.887Z,99.99
2019-04-05T07:20:28.830Z,99.99
2019-04-05T07:21:28.709Z,99.99
2019-04-05T07:22:38.523Z,99.99
2019-04-05T07:23:28.544Z,99.99
2019-04-05T07:24:28.500Z,99.99
2019-04-05T07:25:29.530Z,99.99
2019-04-05T07:26:28.293Z,99.99
2019-04-05T07:27:28.236Z,99.99
2019-04-05T07:28:28.143Z,99.99
2019-04-05T07:29:28.051Z,99.99
2019-04-05T07:30:28.918Z,99.99
2019-04-05T07:31:27.886Z,99.99
2019-04-05T07:32:27.809Z,99.99
2019-04-05T07:33:27.752Z,99.99
2019-04-05T07:34:27.645Z,99.99
2019-04-05T07:35:33.459Z,99.99
2019-04-05T07:36:27.475Z,99.99
2019-04-05T07:37:27.392Z,99.99
2019-04-05T07:38:27.309Z,99.99
2019-04-05T07:39:27.226Z,99.99
2019-04-05T07:40:27.153Z,99.99
2019-04-05T07:41:27.067Z,99.99
2019-04-05T07:42:26.979Z,99.99
2019-04-05T07:43:26.905Z,99.99
2019-04-05T07:44:26.817Z,99.99
2019-04-05T07:45:26.737Z,99.99
2019-04-05T07:46:26.651Z,99.99
2019-04-05T07:47:26.570Z,99.99
2019-04-05T07:48:26.486Z,99.99
2019-04-05T07:49:26.406Z,99.99
2019-04-05T07:50:26.318Z,99.99
2019-04-05T07:51:26.244Z,99.99
2019-04-05T07:52:26.161Z,99.99
2019-04-05T07:53:26.075Z,99.99
2019-04-05T07:54:25.997Z,99.99
2019-04-05T07:55:25.911Z,99.99
2019-04-05T07:56:25.832Z,99.99
2019-04-05T07:57:25.747Z,99.99
2019-04-05T07:58:25.667Z,99.99
2019-04-05T07:59:25.613Z,99.99
2019-04-05T08:00:25.501Z,99.99
2019-04-05T08:01:25.425Z,99.99
2019-04-05T08:02:25.343Z,99.99
2019-04-05T08:03:25.264Z,99.99
2019-04-05T08:04:25.177Z,99.99
2019-04-05T08:05:25.111Z,99.99
2019-04-05T08:06:25.012Z,99.99
2019-04-05T08:07:24.930Z,99.99
2019-04-05T08:08:24.848Z,99.99
2019-04-05T08:09:24.768Z,99.99
2019-04-05T08:10:24.687Z,99.99
2019-04-05T08:11:24.602Z,99.99
2019-04-05T08:12:24.522Z,99.60
2019-04-05T08:13:24.440Z,99.60
2019-04-05T08:14:24.365Z,99.41
2019-04-05T08:15:24.273Z,99.13
2019-04-05T08:16:24.198Z,99.41
2019-04-05T08:17:24.110Z,99.13
2019-04-05T08:18:24.033Z,99.79
2019-04-05T08:19:23.944Z,99.99
2019-04-05T08:20:25.302Z,99.69
2019-04-05T08:21:23.785Z,99.03
2019-04-05T08:22:23.707Z,98.70
2019-04-05T08:23:23.622Z,98.03
2019-04-05T08:24:23.548Z,98.22
2019-04-05T08:25:23.454Z,97.94
2019-04-05T08:26:23.380Z,97.56
2019-04-05T08:27:23.296Z,97.56
2019-04-05T08:28:23.210Z,97.56
2019-04-05T08:29:23.134Z,97.94
2019-04-05T08:30:23.051Z,97.13
2019-04-05T08:31:22.975Z,98.03
2019-04-05T08:32:22.908Z,98.32
2019-04-05T08:33:22.803Z,98.13
2019-04-05T08:34:22.725Z,97.94
2019-04-05T08:35:22.663Z,97.56
2019-04-05T08:36:22.579Z,97.65
2019-04-05T08:37:22.478Z,98.03
2019-04-05T08:38:22.401Z,98.41
2019-04-05T08:39:22.321Z,98.60
2019-04-05T08:40:22.252Z,98.70
2019-04-05T08:41:22.155Z,99.18
2019-04-05T08:42:22.079Z,98.51
2019-04-05T08:43:22.005Z,97.94
2019-04-05T08:44:21.911Z,98.60
2019-04-05T08:45:21.836Z,98.60
2019-04-05T08:46:21.752Z,98.89
2019-04-05T08:47:22.540Z,98.13
2019-04-05T08:48:21.588Z,97.94
2019-04-05T08:49:21.504Z,97.36
2019-04-05T08:50:21.430Z,97.27
2019-04-05T08:51:21.355Z,97.46
2019-04-05T08:52:21.258Z,97.17
2019-04-05T08:53:21.185Z,97.56
2019-04-05T08:54:31.979Z,96.98
2019-04-05T08:55:21.018Z,96.89
2019-04-05T08:56:20.938Z,96.80
2019-04-05T08:57:20.857Z,96.60
2019-04-05T08:58:32.801Z,96.60
2019-04-05T08:59:20.691Z,97.56
2019-04-05T09:00:20.631Z,97.27
2019-04-05T09:01:20.533Z,96.51
2019-04-05T09:02:20.450Z,96.22
2019-04-05T09:03:20.369Z,96.22
2019-04-05T09:04:20.292Z,96.32
2019-04-05T09:05:20.204Z,96.32
2019-04-05T09:06:20.127Z,96.32
2019-04-05T09:07:20.044Z,96.32
2019-04-05T09:08:21.407Z,96.41
2019-04-05T09:09:19.879Z,96.51
2019-04-05T09:10:19.800Z,96.41
2019-04-05T09:11:19.740Z,96.22
2019-04-05T09:12:19.639Z,95.46
2019-04-05T09:13:19.559Z,95.46
2019-04-05T09:14:21.023Z,96.03
2019-04-05T09:15:19.392Z,95.84
2019-04-05T09:16:19.312Z,95.27
2019-04-05T09:17:19.233Z,95.36
2019-04-05T09:18:19.147Z,96.32
2019-04-05T09:19:23.804Z,96.22
2019-04-05T09:20:18.995Z,96.12
2019-04-05T09:21:18.908Z,96.32
2019-04-05T09:22:18.830Z,96.22
2019-04-05T09:23:18.745Z,96.03
2019-04-05T09:24:18.672Z,95.61
2019-04-05T09:25:19.923Z,95.41
2019-04-05T09:26:18.503Z,95.36
2019-04-05T09:27:18.440Z,95.51
2019-04-05T09:28:18.345Z,94.65
2019-04-05T09:29:18.265Z,94.60
2019-04-05T09:30:18.185Z,95.22
2019-04-05T09:31:18.099Z,95.51
2019-04-05T09:32:18.017Z,95.22
2019-04-05T09:33:17.963Z,95.12
2019-04-05T09:34:17.861Z,94.74
2019-04-05T09:35:17.795Z,94.84
2019-04-05T09:36:17.701Z,94.56
2019-04-05T09:37:17.616Z,94.17
2019-04-05T09:38:17.533Z,94.17
2019-04-05T09:39:17.462Z,93.79
2019-04-05T09:40:17.376Z,93.98
2019-04-05T09:41:17.293Z,94.17
2019-04-05T09:42:17.212Z,94.27
2019-04-05T09:43:17.139Z,92.84
2019-04-05T09:44:17.053Z,93.22
2019-04-05T09:45:16.972Z,93.79
2019-04-05T09:46:16.894Z,93.03
2019-04-05T09:47:16.811Z,92.84
2019-04-05T09:48:16.729Z,92.65
2019-04-05T09:49:16.650Z,92.84
2019-04-05T09:50:16.582Z,92.65
2019-04-05T09:51:16.489Z,93.03
2019-04-05T09:52:16.406Z,92.84
2019-04-05T09:53:16.333Z,92.55
2019-04-05T09:54:16.258Z,92.27
2019-04-05T09:55:16.168Z,92.84
2019-04-05T09:56:16.090Z,92.55
2019-04-05T09:57:16.014Z,92.84
2019-04-05T09:58:15.930Z,91.69
2019-04-05T09:59:15.844Z,92.08
2019-04-05T10:00:15.770Z,91.79
2019-04-05T10:01:15.691Z,92.46
2019-04-05T10:02:15.603Z,92.55
2019-04-05T10:03:15.540Z,91.98
2019-04-05T10:04:15.448Z,92.36
2019-04-05T10:05:15.367Z,92.17
2019-04-05T10:06:15.283Z,91.98
2019-04-05T10:07:15.206Z,92.08
2019-04-05T10:08:15.131Z,91.13
2019-04-05T10:09:15.056Z,90.93
2019-04-05T10:10:14.967Z,90.69
2019-04-05T10:11:14.891Z,90.93
2019-04-05T10:12:14.806Z,90.12
2019-04-05T10:13:14.730Z,90.79
2019-04-05T10:14:14.654Z,91.27
2019-04-05T10:15:14.572Z,89.64
2019-04-05T10:16:14.484Z,89.36
2019-04-05T10:17:14.408Z,89.07
2019-04-05T10:18:14.332Z,89.36
2019-04-05T10:19:14.256Z,89.36
2019-04-05T10:20:14.169Z,88.98
2019-04-05T10:21:14.098Z,90.03
2019-04-05T10:22:14.005Z,89.26
2019-04-05T10:23:13.927Z,89.54
2019-04-05T10:24:13.856Z,89.07
2019-04-05T10:25:13.773Z,89.36
2019-04-05T10:26:13.689Z,89.54
2019-04-05T10:27:13.615Z,88.12
2019-04-05T10:28:13.530Z,88.40
2019-04-05T10:29:13.451Z,89.07
2019-04-05T10:30:13.370Z,88.98
2019-04-05T10:31:13.296Z,88.69
2019-04-05T10:32:13.219Z,88.40
2019-04-05T10:33:13.134Z,88.31
2019-04-05T10:34:13.061Z,88.59
2019-04-05T10:35:12.979Z,88.21
2019-04-05T10:36:12.907Z,88.50
2019-04-05T10:37:12.822Z,87.45
2019-04-05T10:38:12.741Z,84.97
2019-04-05T10:39:12.702Z,85.83
2019-04-05T10:40:12.583Z,85.45
2019-04-05T10:41:12.501Z,86.21
2019-04-05T10:42:12.420Z,85.83
2019-04-05T10:43:12.344Z,86.88
2019-04-05T10:44:12.264Z,87.35
2019-04-05T10:45:12.187Z,86.78
2019-04-05T10:46:12.105Z,85.35
2019-04-05T10:47:12.046Z,84.11
2019-04-05T11:02:09.745Z,86.11
2019-04-05T11:03:02.829Z,84.97
2019-04-05T11:08:40.237Z,83.35
2019-04-05T11:09:40.157Z,84.01
2019-04-05T11:14:13.517Z,82.11
2019-04-05T11:14:29.399Z,83.06
2019-04-05T11:18:32.809Z,81.15
2019-04-05T11:19:32.353Z,82.59
2019-04-05T11:21:37.122Z,82.30
2019-04-05T11:22:36.287Z,82.30
2019-04-05T12:16:40.955Z,62.62
2019-04-05T12:17:40.913Z,63.00
2019-04-05T12:20:05.229Z,61.88
2019-04-05T12:20:47.365Z,61.24
2019-04-05T12:59:26.499Z,54.33
2019-04-05T13:00:26.484Z,54.13
2019-04-05T13:04:37.921Z,54.11
2019-04-05T13:05:37.836Z,54.39
2019-04-05T13:07:43.179Z,54.27
2019-04-05T13:08:43.104Z,54.46
2019-04-05T13:10:51.437Z,55.23
2019-04-05T13:11:48.390Z,55.62
2019-04-05T13:13:54.357Z,55.52
2019-04-05T13:14:59.682Z,55.42
2019-04-05T13:17:02.586Z,55.35
2019-04-05T13:18:01.224Z,54.68
2019-04-05T13:20:15.928Z,54.25
2019-04-05T13:21:15.848Z,53.58
2019-04-05T13:23:43.271Z,53.03
2019-04-05T13:24:21.120Z,52.39
2019-04-05T13:50:26.912Z,44.54
2019-04-05T13:51:13.128Z,44.25
2019-04-05T13:53:41.808Z,44.54
2019-04-05T13:54:30.409Z,44.73
2019-04-05T13:56:34.292Z,44.83
2019-04-05T13:57:42.375Z,44.54
2019-04-05T13:59:27.106Z,44.73
2019-04-05T14:00:27.424Z,44.93
2019-04-05T14:02:33.916Z,44.27
2019-04-05T14:03:33.758Z,44.08
2019-04-05T14:07:24.411Z,45.00
2019-04-05T14:08:21.757Z,46.21
2019-04-05T14:10:25.623Z,46.77
2019-04-05T14:11:26.068Z,47.63
2019-04-05T14:13:29.382Z,46.88
2019-04-05T14:14:29.355Z,46.31
2019-04-05T14:16:33.671Z,46.04
2019-04-05T14:17:33.597Z,46.23
2019-04-05T14:19:28.834Z,46.33
2019-04-05T14:20:26.816Z,45.65
2019-04-05T14:22:30.729Z,46.14
2019-04-05T14:23:30.657Z,47.10
2019-04-05T14:25:45.708Z,47.08
2019-04-05T14:26:34.962Z,47.08
2019-04-05T14:28:40.289Z,47.82
2019-04-05T14:29:40.214Z,48.57
2019-04-05T14:30:40.140Z,48.85
2019-04-05T14:31:40.076Z,49.24
2019-04-05T14:32:40.008Z,49.91
2019-04-05T14:33:39.938Z,49.82
2019-04-05T14:34:39.869Z,49.82
2019-04-05T14:35:39.802Z,49.05
2019-04-05T14:36:39.737Z,48.76
2019-04-05T14:37:39.668Z,49.05
2019-04-05T14:38:39.609Z,48.47
2019-04-05T14:39:39.532Z,48.47
2019-04-05T14:40:39.469Z,48.47
2019-04-05T14:41:39.403Z,48.76
2019-04-05T14:42:39.340Z,49.15
2019-04-05T14:43:39.272Z,49.24
2019-04-05T14:44:39.203Z,48.47
2019-04-05T14:45:39.144Z,48.76
2019-04-05T14:46:39.079Z,48.57
2019-04-05T14:47:41.385Z,48.47
2019-04-05T14:48:38.947Z,48.76
2019-04-05T14:49:38.882Z,48.47
2019-04-05T14:50:38.879Z,48.88
2019-04-05T14:51:38.756Z,49.17
2019-04-05T14:52:45.782Z,48.40
2019-04-05T14:53:38.625Z,48.49
2019-04-05T14:54:38.558Z,48.49
2019-04-05T14:55:38.497Z,48.59
2019-04-05T14:56:38.435Z,48.71
2019-04-05T14:57:38.433Z,48.88
2019-04-05T14:58:38.296Z,49.74
2019-04-05T14:59:38.236Z,50.13
2019-04-05T15:00:38.168Z,50.42
2019-04-05T15:01:38.111Z,49.74
2019-04-05T15:02:38.039Z,49.74
2019-04-05T15:03:37.970Z,49.63
2019-04-05T15:04:37.905Z,50.59
2019-04-05T15:05:37.834Z,50.49
2019-04-05T15:06:37.768Z,50.20
2019-04-05T15:07:38.146Z,49.84
2019-04-05T15:08:37.633Z,49.27
2019-04-05T15:09:37.570Z,49.84
2019-04-05T15:10:37.507Z,50.04
2019-04-05T15:11:37.432Z,49.96
2019-04-05T15:12:37.374Z,48.93
2019-04-05T15:13:37.320Z,47.99
2019-04-05T15:14:37.234Z,46.73
2019-04-05T15:15:37.165Z,46.93
2019-04-05T15:16:37.099Z,47.03
2019-04-05T15:17:47.435Z,46.25
2019-04-05T15:18:36.966Z,45.60
2019-04-05T15:19:36.899Z,46.01
2019-04-05T15:20:36.835Z,45.43
2019-04-05T15:21:38.781Z,45.14
2019-04-05T15:22:36.701Z,44.87
2019-04-05T15:23:36.634Z,44.66
2019-04-05T15:24:36.571Z,44.18
2019-04-05T15:25:36.503Z,44.27
2019-04-05T15:26:36.432Z,44.27
2019-04-05T15:27:36.368Z,44.66
2019-04-05T15:28:38.934Z,44.64
2019-04-05T15:29:36.239Z,45.58
2019-04-05T15:30:36.169Z,45.97
2019-04-05T15:31:36.114Z,46.35
2019-04-05T15:32:36.040Z,46.15
2019-04-05T15:33:35.997Z,46.93
2019-04-05T15:34:35.905Z,46.04
2019-04-05T15:35:35.838Z,46.33
2019-04-05T15:36:35.773Z,47.27
2019-04-05T15:37:37.487Z,47.65
2019-04-05T15:38:35.642Z,48.13
2019-04-05T15:39:35.577Z,48.71
2019-04-05T15:40:35.505Z,49.65